sensor_id;sensor_type;location;lat;lon;timestamp;P1;durP1;ratioP1;P2;durP2;ratioP2
6255;SDS011;3161;48.794;9.784;2023-05-07T00:00:22;3.33;;;2.67;;
6255;SDS011;3161;48.794;9.784;2023-05-07T00:02:50;3.10;;;2.80;;
6255;SDS011;3161;48.794;9.784;2023-05-07T00:05:19;4.00;;;2.53;;
6255;SDS011;3161;48.794;9.784;2023-05-07T00:07:46;2.50;;;2.03;;
6255;SDS011;3161;48.794;9.784;2023-05-07T00:10:14;5.83;;;2.40;;
6255;SDS011;3161;48.794;9.784;2023-05-07T00:12:41;5.57;;;2.33;;
6255;SDS011;3161;48.794;9.784;2023-05-07T00:15:09;4.17;;;2.50;;
6255;SDS011;3161;48.794;9.784;2023-05-07T00:17:37;5.33;;;2.60;;
6255;SDS011;3161;48.794;9.784;2023-05-07T00:20:05;8.37;;;2.47;;
6255;SDS011;3161;48.794;9.784;2023-05-07T00:22:33;4.77;;;2.57;;
6255;SDS011;3161;48.794;9.784;2023-05-07T00:25:00;7.30;;;2.43;;
6255;SDS011;3161;48.794;9.784;2023-05-07T00:27:28;6.40;;;2.37;;
6255;SDS011;3161;48.794;9.784;2023-05-07T00:29:55;2.50;;;2.00;;
6255;SDS011;3161;48.794;9.784;2023-05-07T00:32:23;4.37;;;3.10;;
6255;SDS011;3161;48.794;9.784;2023-05-07T00:34:50;4.10;;;2.60;;
6255;SDS011;3161;48.794;9.784;2023-05-07T00:37:18;5.10;;;2.77;;
6255;SDS011;3161;48.794;9.784;2023-05-07T00:39:45;2.73;;;2.20;;
6255;SDS011;3161;48.794;9.784;2023-05-07T00:42:13;3.30;;;2.90;;
6255;SDS011;3161;48.794;9.784;2023-05-07T00:44:41;5.17;;;2.63;;
6255;SDS011;3161;48.794;9.784;2023-05-07T00:47:09;2.90;;;2.40;;
6255;SDS011;3161;48.794;9.784;2023-05-07T00:49:38;3.10;;;2.40;;
6255;SDS011;3161;48.794;9.784;2023-05-07T00:52:08;6.27;;;2.80;;
6255;SDS011;3161;48.794;9.784;2023-05-07T00:54:38;3.03;;;1.97;;
6255;SDS011;3161;48.794;9.784;2023-05-07T00:57:06;3.00;;;2.70;;
6255;SDS011;3161;48.794;9.784;2023-05-07T00:59:37;3.13;;;2.40;;
6255;SDS011;3161;48.794;9.784;2023-05-07T01:02:06;5.00;;;2.50;;
6255;SDS011;3161;48.794;9.784;2023-05-07T01:04:34;7.80;;;2.27;;
6255;SDS011;3161;48.794;9.784;2023-05-07T01:07:02;3.60;;;2.17;;
6255;SDS011;3161;48.794;9.784;2023-05-07T01:09:31;5.67;;;2.10;;
6255;SDS011;3161;48.794;9.784;2023-05-07T01:12:01;3.27;;;2.20;;
6255;SDS011;3161;48.794;9.784;2023-05-07T01:14:30;3.97;;;2.07;;
6255;SDS011;3161;48.794;9.784;2023-05-07T01:16:58;2.90;;;1.93;;
6255;SDS011;3161;48.794;9.784;2023-05-07T01:19:26;2.37;;;2.00;;
6255;SDS011;3161;48.794;9.784;2023-05-07T01:21:59;2.30;;;2.10;;
6255;SDS011;3161;48.794;9.784;2023-05-07T01:24:31;2.77;;;2.20;;
6255;SDS011;3161;48.794;9.784;2023-05-07T01:26:59;2.30;;;2.10;;
6255;SDS011;3161;48.794;9.784;2023-05-07T01:29:27;2.23;;;2.10;;
6255;SDS011;3161;48.794;9.784;2023-05-07T01:31:59;2.37;;;2.17;;
6255;SDS011;3161;48.794;9.784;2023-05-07T01:34:28;5.63;;;2.50;;
6255;SDS011;3161;48.794;9.784;2023-05-07T01:36:57;4.20;;;2.43;;
6255;SDS011;3161;48.794;9.784;2023-05-07T01:39:27;2.57;;;2.10;;
6255;SDS011;3161;48.794;9.784;2023-05-07T01:41:56;4.10;;;2.37;;
6255;SDS011;3161;48.794;9.784;2023-05-07T01:44:25;8.20;;;2.40;;
6255;SDS011;3161;48.794;9.784;2023-05-07T01:46:53;8.67;;;2.17;;
6255;SDS011;3161;48.794;9.784;2023-05-07T01:49:22;3.53;;;2.20;;
6255;SDS011;3161;48.794;9.784;2023-05-07T01:51:49;2.30;;;2.10;;
6255;SDS011;3161;48.794;9.784;2023-05-07T01:54:18;4.07;;;2.30;;
6255;SDS011;3161;48.794;9.784;2023-05-07T01:56:46;3.80;;;2.17;;
6255;SDS011;3161;48.794;9.784;2023-05-07T01:59:14;4.00;;;2.13;;
6255;SDS011;3161;48.794;9.784;2023-05-07T02:01:42;2.87;;;2.00;;
6255;SDS011;3161;48.794;9.784;2023-05-07T02:04:09;4.23;;;2.10;;
6255;SDS011;3161;48.794;9.784;2023-05-07T02:06:37;2.60;;;2.30;;
6255;SDS011;3161;48.794;9.784;2023-05-07T02:09:04;2.43;;;2.20;;
6255;SDS011;3161;48.794;9.784;2023-05-07T02:11:32;2.07;;;1.83;;
6255;SDS011;3161;48.794;9.784;2023-05-07T02:14:00;2.57;;;1.87;;
6255;SDS011;3161;48.794;9.784;2023-05-07T02:16:27;3.07;;;2.17;;
6255;SDS011;3161;48.794;9.784;2023-05-07T02:18:55;2.10;;;2.00;;
6255;SDS011;3161;48.794;9.784;2023-05-07T02:21:24;2.37;;;2.17;;
6255;SDS011;3161;48.794;9.784;2023-05-07T02:23:51;3.10;;;2.03;;
6255;SDS011;3161;48.794;9.784;2023-05-07T02:26:19;3.27;;;1.80;;
6255;SDS011;3161;48.794;9.784;2023-05-07T02:28:47;2.40;;;1.80;;
6255;SDS011;3161;48.794;9.784;2023-05-07T02:31:14;1.87;;;1.77;;
6255;SDS011;3161;48.794;9.784;2023-05-07T02:33:42;3.43;;;1.50;;
6255;SDS011;3161;48.794;9.784;2023-05-07T02:36:11;2.60;;;1.87;;
6255;SDS011;3161;48.794;9.784;2023-05-07T02:38:39;2.10;;;1.90;;
6255;SDS011;3161;48.794;9.784;2023-05-07T02:41:06;5.53;;;1.80;;
6255;SDS011;3161;48.794;9.784;2023-05-07T02:43:34;7.73;;;1.80;;
6255;SDS011;3161;48.794;9.784;2023-05-07T02:46:04;2.33;;;1.80;;
6255;SDS011;3161;48.794;9.784;2023-05-07T02:48:34;4.43;;;2.23;;
6255;SDS011;3161;48.794;9.784;2023-05-07T02:51:01;3.07;;;1.80;;
6255;SDS011;3161;48.794;9.784;2023-05-07T02:53:30;4.23;;;2.10;;
6255;SDS011;3161;48.794;9.784;2023-05-07T02:55:58;1.70;;;1.60;;
6255;SDS011;3161;48.794;9.784;2023-05-07T02:58:28;2.03;;;1.83;;
6255;SDS011;3161;48.794;9.784;2023-05-07T03:00:56;4.10;;;2.20;;
6255;SDS011;3161;48.794;9.784;2023-05-07T03:03:23;4.00;;;1.80;;
6255;SDS011;3161;48.794;9.784;2023-05-07T03:05:51;2.60;;;1.70;;
6255;SDS011;3161;48.794;9.784;2023-05-07T03:08:18;7.90;;;2.10;;
6255;SDS011;3161;48.794;9.784;2023-05-07T03:10:46;4.43;;;2.30;;
6255;SDS011;3161;48.794;9.784;2023-05-07T03:13:14;7.13;;;1.80;;
6255;SDS011;3161;48.794;9.784;2023-05-07T03:15:41;2.30;;;2.07;;
6255;SDS011;3161;48.794;9.784;2023-05-07T03:18:09;2.20;;;2.00;;
6255;SDS011;3161;48.794;9.784;2023-05-07T03:20:37;2.30;;;2.10;;
6255;SDS011;3161;48.794;9.784;2023-05-07T03:23:04;2.63;;;2.03;;
6255;SDS011;3161;48.794;9.784;2023-05-07T03:25:32;3.70;;;1.90;;
6255;SDS011;3161;48.794;9.784;2023-05-07T03:27:59;1.97;;;1.80;;
6255;SDS011;3161;48.794;9.784;2023-05-07T03:30:27;7.33;;;2.23;;
6255;SDS011;3161;48.794;9.784;2023-05-07T03:32:54;2.83;;;2.30;;
6255;SDS011;3161;48.794;9.784;2023-05-07T03:35:22;4.77;;;2.10;;
6255;SDS011;3161;48.794;9.784;2023-05-07T03:37:50;2.63;;;2.20;;
6255;SDS011;3161;48.794;9.784;2023-05-07T03:40:17;2.40;;;2.20;;
6255;SDS011;3161;48.794;9.784;2023-05-07T03:42:45;4.03;;;2.10;;
6255;SDS011;3161;48.794;9.784;2023-05-07T03:45:13;5.23;;;2.40;;
6255;SDS011;3161;48.794;9.784;2023-05-07T03:47:41;4.97;;;2.83;;
6255;SDS011;3161;48.794;9.784;2023-05-07T03:50:09;10.30;;;2.70;;
6255;SDS011;3161;48.794;9.784;2023-05-07T03:52:36;2.47;;;2.27;;
6255;SDS011;3161;48.794;9.784;2023-05-07T03:55:04;2.37;;;2.17;;
6255;SDS011;3161;48.794;9.784;2023-05-07T03:57:32;2.33;;;2.13;;
6255;SDS011;3161;48.794;9.784;2023-05-07T04:00:00;5.30;;;2.60;;
6255;SDS011;3161;48.794;9.784;2023-05-07T04:02:27;4.30;;;2.00;;
6255;SDS011;3161;48.794;9.784;2023-05-07T04:04:55;4.03;;;2.13;;
6255;SDS011;3161;48.794;9.784;2023-05-07T04:07:23;2.20;;;2.10;;
6255;SDS011;3161;48.794;9.784;2023-05-07T04:09:50;2.30;;;2.10;;
6255;SDS011;3161;48.794;9.784;2023-05-07T04:12:18;2.87;;;2.30;;
6255;SDS011;3161;48.794;9.784;2023-05-07T04:14:45;2.87;;;2.30;;
6255;SDS011;3161;48.794;9.784;2023-05-07T04:17:13;3.23;;;1.80;;
6255;SDS011;3161;48.794;9.784;2023-05-07T04:19:40;3.43;;;2.23;;
6255;SDS011;3161;48.794;9.784;2023-05-07T04:22:09;7.37;;;1.97;;
6255;SDS011;3161;48.794;9.784;2023-05-07T04:24:38;2.60;;;2.40;;
6255;SDS011;3161;48.794;9.784;2023-05-07T04:27:05;6.40;;;2.73;;
6255;SDS011;3161;48.794;9.784;2023-05-07T04:29:33;2.70;;;2.47;;
6255;SDS011;3161;48.794;9.784;2023-05-07T04:32:00;4.37;;;2.47;;
6255;SDS011;3161;48.794;9.784;2023-05-07T04:34:28;5.40;;;2.40;;
6255;SDS011;3161;48.794;9.784;2023-05-07T04:36:58;2.40;;;2.20;;
6255;SDS011;3161;48.794;9.784;2023-05-07T04:39:26;6.80;;;2.57;;
6255;SDS011;3161;48.794;9.784;2023-05-07T04:41:53;2.63;;;2.00;;
6255;SDS011;3161;48.794;9.784;2023-05-07T04:44:21;3.13;;;2.27;;
6255;SDS011;3161;48.794;9.784;2023-05-07T04:46:49;2.40;;;1.83;;
6255;SDS011;3161;48.794;9.784;2023-05-07T04:49:16;2.70;;;2.50;;
6255;SDS011;3161;48.794;9.784;2023-05-07T04:51:44;3.40;;;1.97;;
6255;SDS011;3161;48.794;9.784;2023-05-07T05:00:01;4.80;;;2.10;;
6255;SDS011;3161;48.794;9.784;2023-05-07T05:02:30;5.10;;;2.07;;
6255;SDS011;3161;48.794;9.784;2023-05-07T05:04:57;7.00;;;2.50;;
6255;SDS011;3161;48.794;9.784;2023-05-07T05:07:25;2.07;;;1.90;;
6255;SDS011;3161;48.794;9.784;2023-05-07T05:09:53;1.90;;;1.77;;
6255;SDS011;3161;48.794;9.784;2023-05-07T05:12:21;8.37;;;2.73;;
6255;SDS011;3161;48.794;9.784;2023-05-07T05:14:48;3.00;;;2.60;;
6255;SDS011;3161;48.794;9.784;2023-05-07T05:17:16;2.53;;;1.90;;
6255;SDS011;3161;48.794;9.784;2023-05-07T05:19:43;2.40;;;2.30;;
6255;SDS011;3161;48.794;9.784;2023-05-07T05:22:11;4.13;;;2.30;;
6255;SDS011;3161;48.794;9.784;2023-05-07T05:24:39;7.27;;;2.20;;
6255;SDS011;3161;48.794;9.784;2023-05-07T05:27:06;3.73;;;2.13;;
6255;SDS011;3161;48.794;9.784;2023-05-07T05:29:34;4.27;;;2.23;;
6255;SDS011;3161;48.794;9.784;2023-05-07T05:32:01;3.93;;;2.47;;
6255;SDS011;3161;48.794;9.784;2023-05-07T05:34:29;6.63;;;2.37;;
6255;SDS011;3161;48.794;9.784;2023-05-07T05:36:56;6.10;;;2.33;;
6255;SDS011;3161;48.794;9.784;2023-05-07T05:39:25;6.80;;;2.50;;
6255;SDS011;3161;48.794;9.784;2023-05-07T05:41:53;3.10;;;2.10;;
6255;SDS011;3161;48.794;9.784;2023-05-07T05:44:20;3.93;;;2.30;;
6255;SDS011;3161;48.794;9.784;2023-05-07T05:46:48;2.67;;;2.47;;
6255;SDS011;3161;48.794;9.784;2023-05-07T05:49:15;6.67;;;2.37;;
6255;SDS011;3161;48.794;9.784;2023-05-07T05:51:43;2.77;;;2.00;;
6255;SDS011;3161;48.794;9.784;2023-05-07T05:54:10;2.73;;;2.17;;
6255;SDS011;3161;48.794;9.784;2023-05-07T05:56:38;3.60;;;2.00;;
6255;SDS011;3161;48.794;9.784;2023-05-07T05:59:07;4.60;;;2.10;;
6255;SDS011;3161;48.794;9.784;2023-05-07T06:01:35;4.70;;;2.20;;
6255;SDS011;3161;48.794;9.784;2023-05-07T06:04:02;5.03;;;2.63;;
6255;SDS011;3161;48.794;9.784;2023-05-07T06:06:30;4.47;;;2.37;;
6255;SDS011;3161;48.794;9.784;2023-05-07T06:08:58;2.57;;;2.10;;
6255;SDS011;3161;48.794;9.784;2023-05-07T06:11:25;3.07;;;2.00;;
6255;SDS011;3161;48.794;9.784;2023-05-07T06:13:53;6.07;;;1.90;;
6255;SDS011;3161;48.794;9.784;2023-05-07T06:16:20;2.33;;;2.10;;
6255;SDS011;3161;48.794;9.784;2023-05-07T06:18:48;2.53;;;2.00;;
6255;SDS011;3161;48.794;9.784;2023-05-07T06:21:16;2.70;;;1.67;;
6255;SDS011;3161;48.794;9.784;2023-05-07T06:23:43;2.77;;;1.70;;
6255;SDS011;3161;48.794;9.784;2023-05-07T06:26:12;6.20;;;2.50;;
6255;SDS011;3161;48.794;9.784;2023-05-07T06:28:40;3.53;;;2.30;;
6255;SDS011;3161;48.794;9.784;2023-05-07T06:31:17;4.10;;;2.10;;
6255;SDS011;3161;48.794;9.784;2023-05-07T06:33:48;2.40;;;2.10;;
6255;SDS011;3161;48.794;9.784;2023-05-07T06:36:16;3.20;;;1.63;;
6255;SDS011;3161;48.794;9.784;2023-05-07T06:38:44;1.90;;;1.70;;
6255;SDS011;3161;48.794;9.784;2023-05-07T06:41:11;2.53;;;1.97;;
6255;SDS011;3161;48.794;9.784;2023-05-07T06:43:39;1.73;;;1.63;;
6255;SDS011;3161;48.794;9.784;2023-05-07T06:46:06;2.10;;;1.37;;
6255;SDS011;3161;48.794;9.784;2023-05-07T06:48:34;3.00;;;1.50;;
6255;SDS011;3161;48.794;9.784;2023-05-07T06:51:03;5.00;;;1.87;;
6255;SDS011;3161;48.794;9.784;2023-05-07T06:53:30;2.80;;;1.90;;
6255;SDS011;3161;48.794;9.784;2023-05-07T06:55:58;2.63;;;1.50;;
6255;SDS011;3161;48.794;9.784;2023-05-07T06:58:26;3.43;;;1.53;;
6255;SDS011;3161;48.794;9.784;2023-05-07T07:00:53;3.73;;;1.80;;
6255;SDS011;3161;48.794;9.784;2023-05-07T07:03:21;3.30;;;1.67;;
6255;SDS011;3161;48.794;9.784;2023-05-07T07:05:51;3.00;;;1.63;;
6255;SDS011;3161;48.794;9.784;2023-05-07T07:08:21;1.30;;;1.20;;
6255;SDS011;3161;48.794;9.784;2023-05-07T07:10:49;1.63;;;1.50;;
6255;SDS011;3161;48.794;9.784;2023-05-07T07:13:16;2.30;;;1.57;;
6255;SDS011;3161;48.794;9.784;2023-05-07T07:15:45;2.40;;;1.53;;
6255;SDS011;3161;48.794;9.784;2023-05-07T07:18:12;1.73;;;1.63;;
6255;SDS011;3161;48.794;9.784;2023-05-07T07:20:40;1.47;;;1.37;;
6255;SDS011;3161;48.794;9.784;2023-05-07T07:23:08;2.33;;;1.47;;
6255;SDS011;3161;48.794;9.784;2023-05-07T07:25:35;3.27;;;1.20;;
6255;SDS011;3161;48.794;9.784;2023-05-07T07:28:03;1.70;;;1.60;;
6255;SDS011;3161;48.794;9.784;2023-05-07T07:30:30;1.20;;;1.10;;
6255;SDS011;3161;48.794;9.784;2023-05-07T07:32:58;2.40;;;1.23;;
6255;SDS011;3161;48.794;9.784;2023-05-07T07:35:28;8.67;;;1.33;;
6255;SDS011;3161;48.794;9.784;2023-05-07T07:37:56;2.73;;;1.40;;
6255;SDS011;3161;48.794;9.784;2023-05-07T07:40:23;3.93;;;1.10;;
6255;SDS011;3161;48.794;9.784;2023-05-07T07:42:52;1.87;;;1.63;;
6255;SDS011;3161;48.794;9.784;2023-05-07T07:45:20;2.60;;;1.27;;
6255;SDS011;3161;48.794;9.784;2023-05-07T07:47:48;2.37;;;1.00;;
6255;SDS011;3161;48.794;9.784;2023-05-07T07:50:15;1.98;;;1.20;;
6255;SDS011;3161;48.794;9.784;2023-05-07T07:52:43;3.77;;;1.27;;
6255;SDS011;3161;48.794;9.784;2023-05-07T07:55:11;1.00;;;0.90;;
6255;SDS011;3161;48.794;9.784;2023-05-07T07:57:39;1.93;;;1.30;;
6255;SDS011;3161;48.794;9.784;2023-05-07T08:00:08;2.43;;;1.00;;
6255;SDS011;3161;48.794;9.784;2023-05-07T08:02:36;3.03;;;0.80;;
6255;SDS011;3161;48.794;9.784;2023-05-07T08:05:04;1.90;;;0.90;;
6255;SDS011;3161;48.794;9.784;2023-05-07T08:07:32;2.12;;;0.85;;
6255;SDS011;3161;48.794;9.784;2023-05-07T08:10:00;1.00;;;1.00;;
6255;SDS011;3161;48.794;9.784;2023-05-07T08:12:28;2.40;;;0.93;;
6255;SDS011;3161;48.794;9.784;2023-05-07T08:14:55;1.27;;;0.93;;
6255;SDS011;3161;48.794;9.784;2023-05-07T08:17:23;0.95;;;0.75;;
6255;SDS011;3161;48.794;9.784;2023-05-07T08:19:51;0.78;;;0.78;;
6255;SDS011;3161;48.794;9.784;2023-05-07T08:22:18;1.02;;;0.88;;
6255;SDS011;3161;48.794;9.784;2023-05-07T08:24:46;1.30;;;0.95;;
6255;SDS011;3161;48.794;9.784;2023-05-07T08:27:14;1.02;;;0.90;;
6255;SDS011;3161;48.794;9.784;2023-05-07T08:29:41;5.67;;;0.80;;
6255;SDS011;3161;48.794;9.784;2023-05-07T08:32:10;2.70;;;0.70;;
6255;SDS011;3161;48.794;9.784;2023-05-07T08:34:38;2.45;;;0.93;;
6255;SDS011;3161;48.794;9.784;2023-05-07T08:37:06;1.30;;;0.78;;
6255;SDS011;3161;48.794;9.784;2023-05-07T08:39:33;1.57;;;1.10;;
6255;SDS011;3161;48.794;9.784;2023-05-07T08:42:01;0.78;;;0.62;;
6255;SDS011;3161;48.794;9.784;2023-05-07T08:44:33;1.25;;;1.07;;
6255;SDS011;3161;48.794;9.784;2023-05-07T08:47:01;2.00;;;1.15;;
6255;SDS011;3161;48.794;9.784;2023-05-07T08:49:30;1.50;;;0.70;;
6255;SDS011;3161;48.794;9.784;2023-05-07T08:51:57;1.17;;;0.78;;
6255;SDS011;3161;48.794;9.784;2023-05-07T08:54:26;1.87;;;0.60;;
6255;SDS011;3161;48.794;9.784;2023-05-07T08:56:55;1.47;;;0.65;;
6255;SDS011;3161;48.794;9.784;2023-05-07T08:59:22;1.42;;;0.65;;
6255;SDS011;3161;48.794;9.784;2023-05-07T09:01:50;2.55;;;1.15;;
6255;SDS011;3161;48.794;9.784;2023-05-07T09:04:17;6.72;;;0.70;;
6255;SDS011;3161;48.794;9.784;2023-05-07T09:06:45;0.82;;;0.82;;
6255;SDS011;3161;48.794;9.784;2023-05-07T09:09:16;1.40;;;0.75;;
6255;SDS011;3161;48.794;9.784;2023-05-07T09:11:47;0.95;;;0.65;;
6255;SDS011;3161;48.794;9.784;2023-05-07T09:14:14;2.15;;;1.05;;
6255;SDS011;3161;48.794;9.784;2023-05-07T09:16:42;2.17;;;0.65;;
6255;SDS011;3161;48.794;9.784;2023-05-07T09:19:09;1.05;;;0.80;;
6255;SDS011;3161;48.794;9.784;2023-05-07T09:21:37;0.80;;;0.62;;
6255;SDS011;3161;48.794;9.784;2023-05-07T09:24:05;0.70;;;0.70;;
6255;SDS011;3161;48.794;9.784;2023-05-07T09:26:33;6.12;;;2.85;;
6255;SDS011;3161;48.794;9.784;2023-05-07T09:29:01;1.25;;;0.80;;
6255;SDS011;3161;48.794;9.784;2023-05-07T09:31:29;1.05;;;0.60;;
6255;SDS011;3161;48.794;9.784;2023-05-07T09:33:57;1.87;;;0.60;;
6255;SDS011;3161;48.794;9.784;2023-05-07T09:36:24;0.78;;;0.60;;
6255;SDS011;3161;48.794;9.784;2023-05-07T09:38:53;0.85;;;0.78;;
6255;SDS011;3161;48.794;9.784;2023-05-07T09:41:22;2.75;;;1.22;;
6255;SDS011;3161;48.794;9.784;2023-05-07T09:43:53;2.95;;;0.90;;
6255;SDS011;3161;48.794;9.784;2023-05-07T09:46:20;3.35;;;0.80;;
6255;SDS011;3161;48.794;9.784;2023-05-07T09:48:53;0.68;;;0.68;;
6255;SDS011;3161;48.794;9.784;2023-05-07T09:51:32;1.80;;;0.70;;
6255;SDS011;3161;48.794;9.784;2023-05-07T09:54:10;1.25;;;0.88;;
6255;SDS011;3161;48.794;9.784;2023-05-07T09:56:37;3.05;;;0.62;;
6255;SDS011;3161;48.794;9.784;2023-05-07T09:59:08;2.55;;;0.78;;
6255;SDS011;3161;48.794;9.784;2023-05-07T10:01:40;0.65;;;0.50;;
6255;SDS011;3161;48.794;9.784;2023-05-07T10:04:09;2.90;;;0.70;;
6255;SDS011;3161;48.794;9.784;2023-05-07T10:06:38;0.68;;;0.60;;
6255;SDS011;3161;48.794;9.784;2023-05-07T10:09:07;0.40;;;0.40;;
6255;SDS011;3161;48.794;9.784;2023-05-07T10:11:37;0.80;;;0.60;;
6255;SDS011;3161;48.794;9.784;2023-05-07T10:14:05;1.20;;;0.65;;
6255;SDS011;3161;48.794;9.784;2023-05-07T10:16:34;0.60;;;0.60;;
6255;SDS011;3161;48.794;9.784;2023-05-07T10:19:08;1.50;;;0.88;;
6255;SDS011;3161;48.794;9.784;2023-05-07T10:21:37;1.42;;;0.80;;
6255;SDS011;3161;48.794;9.784;2023-05-07T10:26:40;2.20;;;0.80;;
6255;SDS011;3161;48.794;9.784;2023-05-07T10:29:34;3.95;;;0.82;;
6255;SDS011;3161;48.794;9.784;2023-05-07T10:34:28;2.75;;;0.72;;
6255;SDS011;3161;48.794;9.784;2023-05-07T10:36:56;3.83;;;0.75;;
6255;SDS011;3161;48.794;9.784;2023-05-07T10:39:24;1.57;;;0.62;;
6255;SDS011;3161;48.794;9.784;2023-05-07T10:41:52;2.08;;;0.62;;
6255;SDS011;3161;48.794;9.784;2023-05-07T10:44:28;1.75;;;0.55;;
6255;SDS011;3161;48.794;9.784;2023-05-07T10:47:04;1.60;;;1.00;;
6255;SDS011;3161;48.794;9.784;2023-05-07T10:52:16;3.77;;;1.07;;
6255;SDS011;3161;48.794;9.784;2023-05-07T10:54:45;1.82;;;0.72;;
6255;SDS011;3161;48.794;9.784;2023-05-07T11:00:40;1.47;;;1.27;;
6255;SDS011;3161;48.794;9.784;2023-05-07T11:05:31;0.78;;;0.78;;
6255;SDS011;3161;48.794;9.784;2023-05-07T11:08:01;2.70;;;1.10;;
6255;SDS011;3161;48.794;9.784;2023-05-07T11:16:21;1.85;;;0.80;;
6255;SDS011;3161;48.794;9.784;2023-05-07T11:18:47;2.27;;;0.50;;
6255;SDS011;3161;48.794;9.784;2023-05-07T11:21:31;0.70;;;0.70;;
6255;SDS011;3161;48.794;9.784;2023-05-07T11:24:00;3.40;;;0.88;;
6255;SDS011;3161;48.794;9.784;2023-05-07T11:26:41;3.05;;;0.70;;
6255;SDS011;3161;48.794;9.784;2023-05-07T11:28:59;4.72;;;0.85;;
6255;SDS011;3161;48.794;9.784;2023-05-07T11:31:27;1.07;;;0.70;;
6255;SDS011;3161;48.794;9.784;2023-05-07T11:33:55;1.55;;;0.80;;
6255;SDS011;3161;48.794;9.784;2023-05-07T11:36:24;0.88;;;0.80;;
6255;SDS011;3161;48.794;9.784;2023-05-07T11:38:53;1.80;;;0.75;;
6255;SDS011;3161;48.794;9.784;2023-05-07T11:41:20;1.05;;;0.90;;
6255;SDS011;3161;48.794;9.784;2023-05-07T11:43:55;2.52;;;0.70;;
6255;SDS011;3161;48.794;9.784;2023-05-07T11:46:23;0.90;;;0.82;;
6255;SDS011;3161;48.794;9.784;2023-05-07T11:48:51;3.98;;;0.90;;
6255;SDS011;3161;48.794;9.784;2023-05-07T11:51:20;1.40;;;0.93;;
6255;SDS011;3161;48.794;9.784;2023-05-07T11:53:49;0.90;;;0.90;;
6255;SDS011;3161;48.794;9.784;2023-05-07T11:56:17;0.90;;;0.90;;
6255;SDS011;3161;48.794;9.784;2023-05-07T11:58:46;4.80;;;1.00;;
6255;SDS011;3161;48.794;9.784;2023-05-07T12:01:15;2.77;;;0.60;;
6255;SDS011;3161;48.794;9.784;2023-05-07T12:03:43;1.77;;;0.80;;
6255;SDS011;3161;48.794;9.784;2023-05-07T12:06:12;1.90;;;0.60;;
6255;SDS011;3161;48.794;9.784;2023-05-07T12:08:42;1.57;;;0.80;;
6255;SDS011;3161;48.794;9.784;2023-05-07T12:11:14;2.15;;;0.82;;
6255;SDS011;3161;48.794;9.784;2023-05-07T12:13:44;3.37;;;1.15;;
6255;SDS011;3161;48.794;9.784;2023-05-07T12:16:11;4.72;;;0.85;;
6255;SDS011;3161;48.794;9.784;2023-05-07T12:18:40;1.27;;;0.93;;
6255;SDS011;3161;48.794;9.784;2023-05-07T12:21:09;0.98;;;0.60;;
6255;SDS011;3161;48.794;9.784;2023-05-07T12:23:37;4.60;;;1.02;;
6255;SDS011;3161;48.794;9.784;2023-05-07T12:26:05;0.60;;;0.40;;
6255;SDS011;3161;48.794;9.784;2023-05-07T12:28:37;2.75;;;0.95;;
6255;SDS011;3161;48.794;9.784;2023-05-07T12:31:05;1.37;;;0.95;;
6255;SDS011;3161;48.794;9.784;2023-05-07T12:33:34;2.50;;;0.88;;
6255;SDS011;3161;48.794;9.784;2023-05-07T12:36:08;3.72;;;0.85;;
6255;SDS011;3161;48.794;9.784;2023-05-07T12:38:37;0.90;;;0.88;;
6255;SDS011;3161;48.794;9.784;2023-05-07T12:41:07;1.82;;;1.00;;
6255;SDS011;3161;48.794;9.784;2023-05-07T12:43:36;0.95;;;0.68;;
6255;SDS011;3161;48.794;9.784;2023-05-07T12:46:06;1.47;;;0.80;;
6255;SDS011;3161;48.794;9.784;2023-05-07T12:48:35;1.50;;;1.12;;
6255;SDS011;3161;48.794;9.784;2023-05-07T12:51:04;1.10;;;0.90;;
6255;SDS011;3161;48.794;9.784;2023-05-07T12:53:34;2.90;;;0.78;;
6255;SDS011;3161;48.794;9.784;2023-05-07T12:56:05;1.25;;;0.85;;
6255;SDS011;3161;48.794;9.784;2023-05-07T12:58:33;1.00;;;0.85;;
6255;SDS011;3161;48.794;9.784;2023-05-07T13:01:07;0.60;;;0.60;;
6255;SDS011;3161;48.794;9.784;2023-05-07T13:03:32;4.45;;;0.78;;
6255;SDS011;3161;48.794;9.784;2023-05-07T13:06:02;2.15;;;1.27;;
6255;SDS011;3161;48.794;9.784;2023-05-07T13:08:35;2.05;;;0.93;;
6255;SDS011;3161;48.794;9.784;2023-05-07T13:11:07;1.87;;;0.80;;
6255;SDS011;3161;48.794;9.784;2023-05-07T13:13:36;1.40;;;0.90;;
6255;SDS011;3161;48.794;9.784;2023-05-07T13:16:08;2.80;;;1.15;;
6255;SDS011;3161;48.794;9.784;2023-05-07T13:18:35;3.08;;;0.70;;
6255;SDS011;3161;48.794;9.784;2023-05-07T13:21:05;11.38;;;1.20;;
6255;SDS011;3161;48.794;9.784;2023-05-07T13:23:33;2.30;;;0.88;;
6255;SDS011;3161;48.794;9.784;2023-05-07T13:26:01;0.90;;;0.90;;
6255;SDS011;3161;48.794;9.784;2023-05-07T13:28:28;2.42;;;0.85;;
6255;SDS011;3161;48.794;9.784;2023-05-07T13:30:56;4.87;;;1.12;;
6255;SDS011;3161;48.794;9.784;2023-05-07T13:33:23;0.72;;;0.72;;
6255;SDS011;3161;48.794;9.784;2023-05-07T13:35:51;5.03;;;0.85;;
6255;SDS011;3161;48.794;9.784;2023-05-07T13:38:19;4.78;;;1.00;;
6255;SDS011;3161;48.794;9.784;2023-05-07T13:40:46;1.60;;;1.07;;
6255;SDS011;3161;48.794;9.784;2023-05-07T13:43:14;2.45;;;1.10;;
6255;SDS011;3161;48.794;9.784;2023-05-07T13:45:43;1.20;;;0.93;;
6255;SDS011;3161;48.794;9.784;2023-05-07T13:48:10;1.10;;;0.70;;
6255;SDS011;3161;48.794;9.784;2023-05-07T13:53:34;3.70;;;1.05;;
6255;SDS011;3161;48.794;9.784;2023-05-07T13:56:01;0.78;;;0.75;;
6255;SDS011;3161;48.794;9.784;2023-05-07T13:58:30;8.40;;;0.98;;
6255;SDS011;3161;48.794;9.784;2023-05-07T14:00:58;2.08;;;0.80;;
6255;SDS011;3161;48.794;9.784;2023-05-07T14:03:25;1.02;;;0.80;;
6255;SDS011;3161;48.794;9.784;2023-05-07T14:05:53;2.40;;;0.88;;
6255;SDS011;3161;48.794;9.784;2023-05-07T14:08:21;0.85;;;0.72;;
6255;SDS011;3161;48.794;9.784;2023-05-07T14:10:48;2.43;;;0.90;;
6255;SDS011;3161;48.794;9.784;2023-05-07T14:13:16;2.17;;;1.00;;
6255;SDS011;3161;48.794;9.784;2023-05-07T14:15:44;3.95;;;1.07;;
6255;SDS011;3161;48.794;9.784;2023-05-07T14:18:12;1.30;;;0.95;;
6255;SDS011;3161;48.794;9.784;2023-05-07T14:20:40;1.42;;;1.00;;
6255;SDS011;3161;48.794;9.784;2023-05-07T14:23:09;1.55;;;1.30;;
6255;SDS011;3161;48.794;9.784;2023-05-07T14:25:37;5.67;;;1.00;;
6255;SDS011;3161;48.794;9.784;2023-05-07T14:28:04;4.55;;;0.70;;
6255;SDS011;3161;48.794;9.784;2023-05-07T14:30:32;2.00;;;0.75;;
6255;SDS011;3161;48.794;9.784;2023-05-07T14:33:00;1.27;;;1.00;;
6255;SDS011;3161;48.794;9.784;2023-05-07T14:35:28;2.12;;;1.07;;
6255;SDS011;3161;48.794;9.784;2023-05-07T14:37:55;2.08;;;1.07;;
6255;SDS011;3161;48.794;9.784;2023-05-07T14:40:23;1.15;;;0.98;;
6255;SDS011;3161;48.794;9.784;2023-05-07T14:42:50;0.80;;;0.80;;
6255;SDS011;3161;48.794;9.784;2023-05-07T14:45:18;1.37;;;0.88;;
6255;SDS011;3161;48.794;9.784;2023-05-07T14:47:47;2.17;;;0.95;;
6255;SDS011;3161;48.794;9.784;2023-05-07T14:50:15;7.53;;;1.05;;
6255;SDS011;3161;48.794;9.784;2023-05-07T14:52:42;0.82;;;0.65;;
6255;SDS011;3161;48.794;9.784;2023-05-07T14:55:10;0.72;;;0.70;;
6255;SDS011;3161;48.794;9.784;2023-05-07T14:57:38;1.65;;;0.70;;
6255;SDS011;3161;48.794;9.784;2023-05-07T15:00:06;1.30;;;1.02;;
6255;SDS011;3161;48.794;9.784;2023-05-07T15:02:35;1.20;;;1.10;;
6255;SDS011;3161;48.794;9.784;2023-05-07T15:05:03;5.30;;;0.90;;
6255;SDS011;3161;48.794;9.784;2023-05-07T15:07:31;6.63;;;0.93;;
6255;SDS011;3161;48.794;9.784;2023-05-07T15:10:00;3.62;;;0.72;;
6255;SDS011;3161;48.794;9.784;2023-05-07T15:12:28;3.33;;;1.00;;
6255;SDS011;3161;48.794;9.784;2023-05-07T15:14:55;3.43;;;1.00;;
6255;SDS011;3161;48.794;9.784;2023-05-07T15:17:23;1.07;;;0.90;;
6255;SDS011;3161;48.794;9.784;2023-05-07T15:19:50;2.73;;;0.80;;
6255;SDS011;3161;48.794;9.784;2023-05-07T15:22:18;0.70;;;0.70;;
6255;SDS011;3161;48.794;9.784;2023-05-07T15:24:47;1.00;;;0.63;;
6255;SDS011;3161;48.794;9.784;2023-05-07T15:27:14;1.20;;;0.70;;
6255;SDS011;3161;48.794;9.784;2023-05-07T15:29:42;0.87;;;0.53;;
6255;SDS011;3161;48.794;9.784;2023-05-07T15:32:10;1.17;;;0.50;;
6255;SDS011;3161;48.794;9.784;2023-05-07T15:34:39;4.13;;;0.40;;
6255;SDS011;3161;48.794;9.784;2023-05-07T15:37:07;2.37;;;0.73;;
6255;SDS011;3161;48.794;9.784;2023-05-07T15:39:34;1.67;;;0.50;;
6255;SDS011;3161;48.794;9.784;2023-05-07T15:42:02;1.33;;;0.67;;
6255;SDS011;3161;48.794;9.784;2023-05-07T15:44:29;1.67;;;0.50;;
6255;SDS011;3161;48.794;9.784;2023-05-07T15:47:03;1.13;;;0.57;;
6255;SDS011;3161;48.794;9.784;2023-05-07T15:49:26;3.70;;;0.60;;